Terminal Aerodrome Forecast
Issued by NWS

Home | Current Version | Previous Version | Text Only | Print | Product List | Glossary On
Versions: 1 2 3 4 5 6 7 8 9 10 11 12 13 14 15 16 17 18 19 20
000
FTUS44 KLZK 181100
TAFHRO
TAF
KHRO 181120Z 1812/1912 14007KT P6SM BKN100 BKN250
      TEMPO 1812/1815 5SM BR
     FM181500 14007KT P6SM VCTS SCT030CB BKN060
     FM182000 11006KT P6SM SCT020 BKN040
      TEMPO 1820/1824 4SM -SHRA BR BKN020
     FM190100 VRB03KT P6SM VCSH BKN040 PROB30 1901/1906 4SM -TSRA BR
      OVC020CB=

USA.gov is the U.S. government's official web portal to all federal, state and local government web resources and services.